createdAt,value
2017-10-23T00:00:39.611Z,10.10
2017-10-23T00:03:07.180Z,10.10
2017-10-23T00:05:34.732Z,10.10
2017-10-23T00:08:02.296Z,10.10
2017-10-23T00:10:29.863Z,10.10
2017-10-23T00:12:57.419Z,10.20
2017-10-23T00:15:25.064Z,10.20
2017-10-23T00:17:52.618Z,10.10
2017-10-23T00:20:20.206Z,10.10
2017-10-23T00:22:47.941Z,10.20
2017-10-23T00:25:15.499Z,10.20
2017-10-23T00:27:43.029Z,10.20
2017-10-23T00:30:11.545Z,10.20
2017-10-23T00:32:39.094Z,10.20
2017-10-23T00:35:06.865Z,10.20
2017-10-23T00:37:34.543Z,10.30
2017-10-23T00:40:02.069Z,10.30
2017-10-23T00:42:29.646Z,10.20
2017-10-23T00:44:57.219Z,10.30
2017-10-23T00:47:24.852Z,10.20
2017-10-23T00:49:52.381Z,10.20
2017-10-23T00:52:20.688Z,10.20
2017-10-23T00:54:48.346Z,10.20
2017-10-23T00:57:15.936Z,10.20
2017-10-23T00:59:43.523Z,10.30
2017-10-23T01:02:11.849Z,10.30
2017-10-23T01:04:39.405Z,10.20
2017-10-23T01:07:07.064Z,10.30
2017-10-23T01:09:34.732Z,10.30
2017-10-23T01:12:02.295Z,10.30
2017-10-23T01:14:30.002Z,10.30
2017-10-23T01:16:58.295Z,10.30
2017-10-23T01:19:25.883Z,10.30
2017-10-23T01:24:27.360Z,10.30
2017-10-23T01:26:54.914Z,10.30
2017-10-23T01:29:22.466Z,10.30
2017-10-23T01:31:50.012Z,10.30
2017-10-23T01:34:17.563Z,10.30
2017-10-23T01:36:45.132Z,10.30
2017-10-23T01:39:12.670Z,10.30
2017-10-23T01:41:41.021Z,10.30
2017-10-23T01:44:09.370Z,10.30
2017-10-23T01:46:36.905Z,10.30
2017-10-23T01:49:04.672Z,10.30
2017-10-23T01:51:32.222Z,10.30
2017-10-23T01:53:59.810Z,10.30
2017-10-23T01:56:27.370Z,10.30
2017-10-23T01:58:54.951Z,10.30
2017-10-23T02:01:22.489Z,10.30
2017-10-23T02:03:50.038Z,10.30
2017-10-23T02:06:17.730Z,10.30
2017-10-23T02:08:46.039Z,10.30
2017-10-23T02:11:13.821Z,10.30
2017-10-23T02:13:41.382Z,10.40
2017-10-23T02:16:08.934Z,10.40
2017-10-23T02:18:36.557Z,10.30
2017-10-23T02:21:04.869Z,10.30
2017-10-23T02:23:32.416Z,10.30
2017-10-23T02:26:00.110Z,10.30
2017-10-23T02:28:27.682Z,10.30
2017-10-23T02:30:56.016Z,10.40
2017-10-23T02:33:23.583Z,10.40
2017-10-23T02:35:51.130Z,10.30
2017-10-23T02:38:18.886Z,10.30
2017-10-23T02:40:46.461Z,10.30
2017-10-23T02:43:14.018Z,10.40
2017-10-23T02:45:41.677Z,10.40
2017-10-23T02:48:09.215Z,10.30
2017-10-23T02:50:36.831Z,10.30
2017-10-23T02:53:04.394Z,10.30
2017-10-23T02:55:31.940Z,10.30
2017-10-23T02:57:59.505Z,10.30
2017-10-23T03:00:27.089Z,10.40
2017-10-23T03:02:55.410Z,10.30
2017-10-23T03:05:22.994Z,10.30
2017-10-23T03:07:50.554Z,10.30
2017-10-23T03:10:18.139Z,10.30
2017-10-23T03:12:47.387Z,10.30
2017-10-23T03:15:15.133Z,10.30
2017-10-23T03:17:42.696Z,10.30
2017-10-23T03:20:10.232Z,10.30
2017-10-23T03:22:37.806Z,10.30
2017-10-23T03:25:05.315Z,10.40
2017-10-23T03:27:33.642Z,10.50
2017-10-23T03:30:01.305Z,10.50
2017-10-23T03:32:28.850Z,10.50
2017-10-23T03:34:56.419Z,10.50
2017-10-23T03:37:23.935Z,10.50
2017-10-23T03:39:51.536Z,10.50
2017-10-23T03:42:19.126Z,10.50
2017-10-23T03:44:46.675Z,10.50
2017-10-23T03:47:14.215Z,10.50
2017-10-23T03:49:42.338Z,10.50
2017-10-23T03:52:09.922Z,10.50
2017-10-23T03:54:37.449Z,10.50
2017-10-23T03:57:04.987Z,10.50
2017-10-23T03:59:33.363Z,10.50
2017-10-23T04:02:00.929Z,10.50
2017-10-23T04:04:28.518Z,10.50
2017-10-23T04:06:56.815Z,10.50
2017-10-23T04:09:24.354Z,10.50
2017-10-23T04:11:52.662Z,10.50
2017-10-23T04:14:20.211Z,10.50
2017-10-23T04:16:47.778Z,10.50
2017-10-23T04:19:15.317Z,10.50
2017-10-23T04:21:42.859Z,10.50
2017-10-23T04:24:11.186Z,10.50
2017-10-23T04:26:38.748Z,10.50
2017-10-23T04:29:06.390Z,10.50
2017-10-23T04:31:33.942Z,10.60
2017-10-23T04:34:01.518Z,10.50
2017-10-23T04:36:29.065Z,10.50
2017-10-23T04:38:56.626Z,10.50
2017-10-23T04:41:24.199Z,10.50
2017-10-23T04:43:51.737Z,10.50
2017-10-23T04:46:19.326Z,10.50
2017-10-23T04:48:46.983Z,10.50
2017-10-23T04:51:14.529Z,10.50
2017-10-23T04:53:42.232Z,10.50
2017-10-23T04:56:10.050Z,10.50
2017-10-23T04:58:37.634Z,10.50
2017-10-23T05:01:05.330Z,10.50
2017-10-23T05:03:33.649Z,10.50
2017-10-23T05:06:01.393Z,10.50
2017-10-23T05:08:28.950Z,10.50
2017-10-23T05:10:56.502Z,10.50
2017-10-23T05:13:24.034Z,10.50
2017-10-23T05:15:52.328Z,10.50
2017-10-23T05:18:19.901Z,10.50
2017-10-23T05:20:47.448Z,10.50
2017-10-23T05:23:14.990Z,10.50
2017-10-23T05:25:43.313Z,10.40
2017-10-23T05:28:10.835Z,10.40
2017-10-23T05:30:38.381Z,10.50
2017-10-23T05:33:06.788Z,10.40
2017-10-23T05:35:34.318Z,10.40
2017-10-23T05:38:02.660Z,10.40
2017-10-23T05:40:30.314Z,10.40
2017-10-23T05:43:05.516Z,10.40
2017-10-23T05:45:33.114Z,10.50
2017-10-23T05:48:01.967Z,10.50
2017-10-23T05:50:29.614Z,10.40
2017-10-23T05:52:57.181Z,10.50
2017-10-23T05:55:24.938Z,10.50
2017-10-23T05:57:52.454Z,10.40
2017-10-23T06:00:19.981Z,10.40
2017-10-23T06:02:47.530Z,10.40
2017-10-23T06:05:15.497Z,10.40
2017-10-23T06:07:43.235Z,10.40
2017-10-23T06:10:10.785Z,10.40
2017-10-23T06:12:38.322Z,10.40
2017-10-23T06:15:06.629Z,10.40
2017-10-23T06:17:34.224Z,10.40
2017-10-23T06:20:01.815Z,10.40
2017-10-23T06:22:30.164Z,10.40
2017-10-23T06:24:57.716Z,10.40
2017-10-23T06:27:25.278Z,10.40
2017-10-23T06:29:52.829Z,10.40
2017-10-23T06:32:20.365Z,10.40
2017-10-23T06:34:47.907Z,10.40
2017-10-23T06:37:15.490Z,10.40
2017-10-23T06:39:43.066Z,10.40
2017-10-23T06:42:10.615Z,10.40
2017-10-23T06:44:38.176Z,10.40
2017-10-23T06:47:05.747Z,10.40
2017-10-23T06:49:33.920Z,10.50
2017-10-23T06:52:01.577Z,10.50
2017-10-23T06:54:29.105Z,10.50
2017-10-23T06:56:56.714Z,10.50
2017-10-23T06:59:24.254Z,10.50
2017-10-23T07:01:51.814Z,10.60
2017-10-23T07:04:19.953Z,10.60
2017-10-23T07:06:47.547Z,10.60
2017-10-23T07:09:15.124Z,10.60
2017-10-23T07:11:42.666Z,10.60
2017-10-23T07:14:10.198Z,10.60
2017-10-23T07:16:37.745Z,10.70
2017-10-23T07:19:05.265Z,10.70
2017-10-23T07:21:33.602Z,10.70
2017-10-23T07:24:01.162Z,10.70
2017-10-23T07:26:28.692Z,10.70
2017-10-23T07:28:56.242Z,10.70
2017-10-23T07:31:23.932Z,10.80
2017-10-23T07:33:51.677Z,10.90
2017-10-23T07:36:19.216Z,10.90
2017-10-23T07:38:46.789Z,10.90
2017-10-23T07:41:14.346Z,10.90
2017-10-23T07:43:41.903Z,11.00
2017-10-23T07:46:09.505Z,11.00
2017-10-23T07:48:37.340Z,11.10
2017-10-23T07:51:04.898Z,11.10
2017-10-23T07:53:32.478Z,11.10
2017-10-23T07:56:00.017Z,11.10
2017-10-23T07:58:27.747Z,11.10
2017-10-23T08:00:55.290Z,11.10
2017-10-23T08:03:23.611Z,11.10
2017-10-23T08:05:51.172Z,11.10
2017-10-23T08:08:18.724Z,11.10
2017-10-23T08:10:46.610Z,11.10
2017-10-23T08:13:14.175Z,11.20
2017-10-23T08:15:41.760Z,11.20
2017-10-23T08:18:09.333Z,11.30
2017-10-23T08:20:36.972Z,11.30
2017-10-23T08:23:06.300Z,11.50
2017-10-23T08:25:33.910Z,11.50
2017-10-23T08:28:01.545Z,11.60
2017-10-23T08:30:29.106Z,11.70
2017-10-23T08:32:56.692Z,11.70
2017-10-23T08:35:24.599Z,11.70
2017-10-23T08:37:52.206Z,11.70
2017-10-23T08:40:19.839Z,11.70
2017-10-23T08:42:47.499Z,11.70
2017-10-23T08:45:15.168Z,11.70
2017-10-23T08:47:42.734Z,11.70
2017-10-23T08:50:10.264Z,11.70
2017-10-23T08:52:37.838Z,11.70
2017-10-23T08:55:05.400Z,11.70
2017-10-23T08:57:32.981Z,11.80
2017-10-23T09:00:00.724Z,11.90
2017-10-23T09:02:28.286Z,12.00
2017-10-23T09:04:55.808Z,12.10
2017-10-23T09:07:23.399Z,12.10
2017-10-23T09:09:51.749Z,12.10
2017-10-23T09:12:19.315Z,12.30
2017-10-23T09:14:46.915Z,12.30
2017-10-23T09:17:14.456Z,12.30
2017-10-23T09:19:42.305Z,12.20
2017-10-23T09:22:09.841Z,12.30
2017-10-23T09:24:37.419Z,12.30
2017-10-23T09:27:04.984Z,12.40
2017-10-23T09:29:33.176Z,12.40
2017-10-23T09:32:00.757Z,12.60
2017-10-23T09:34:28.310Z,12.60
2017-10-23T09:36:55.896Z,12.70
2017-10-23T09:39:24.228Z,12.80
2017-10-23T09:41:51.806Z,12.80
2017-10-23T09:44:21.458Z,12.80
2017-10-23T09:46:49.015Z,12.90
2017-10-23T09:49:16.608Z,13.00
2017-10-23T09:51:44.156Z,13.10
2017-10-23T09:54:11.706Z,13.00
2017-10-23T09:56:39.262Z,12.90
2017-10-23T09:59:06.856Z,12.90
2017-10-23T10:01:34.483Z,13.00
2017-10-23T10:04:02.076Z,13.10
2017-10-23T10:06:29.661Z,13.10
2017-10-23T10:08:57.970Z,13.20
2017-10-23T10:11:25.531Z,13.20
2017-10-23T10:13:53.097Z,13.30
2017-10-23T10:16:20.642Z,13.30
2017-10-23T10:18:48.182Z,13.30
2017-10-23T10:21:15.745Z,13.30
2017-10-23T10:23:43.282Z,13.30
2017-10-23T10:26:11.633Z,13.40
2017-10-23T10:28:39.197Z,13.40
2017-10-23T10:31:06.762Z,13.60
2017-10-23T10:33:34.315Z,13.70
2017-10-23T10:36:01.869Z,13.70
2017-10-23T10:38:29.456Z,13.60
2017-10-23T10:40:57.042Z,13.60
2017-10-23T10:43:24.601Z,13.90
2017-10-23T10:45:52.475Z,14.00
2017-10-23T10:48:20.017Z,14.20
2017-10-23T10:50:47.567Z,14.20
2017-10-23T10:53:15.140Z,13.90
2017-10-23T10:55:42.717Z,13.80
2017-10-23T10:58:10.365Z,13.80
2017-10-23T11:00:37.933Z,13.80
2017-10-23T11:03:05.550Z,14.00
2017-10-23T11:05:33.857Z,14.00
2017-10-23T11:08:01.456Z,14.00
2017-10-23T11:10:29.075Z,14.00
2017-10-23T11:12:57.231Z,14.00
2017-10-23T11:15:24.781Z,13.90
2017-10-23T11:17:53.080Z,13.90
2017-10-23T11:20:20.741Z,13.90
2017-10-23T11:22:48.277Z,14.00
2017-10-23T11:25:15.867Z,14.10
2017-10-23T11:27:43.463Z,13.90
2017-10-23T11:30:11.027Z,13.80
2017-10-23T11:32:38.594Z,13.70
2017-10-23T11:35:06.169Z,13.60
2017-10-23T11:37:34.525Z,13.50
2017-10-23T11:40:02.877Z,13.50
2017-10-23T11:42:30.432Z,13.50
2017-10-23T11:44:57.986Z,13.60
2017-10-23T11:47:25.545Z,13.70
2017-10-23T11:49:53.385Z,13.80
2017-10-23T11:52:21.043Z,13.80
2017-10-23T11:54:48.582Z,13.70
2017-10-23T11:57:17.183Z,13.70
2017-10-23T11:59:44.731Z,13.70
2017-10-23T12:02:12.349Z,13.60
2017-10-23T12:04:39.879Z,13.60
2017-10-23T12:07:07.458Z,13.60
2017-10-23T12:09:35.062Z,13.60
2017-10-23T12:12:03.359Z,13.60
2017-10-23T12:14:31.109Z,13.60
2017-10-23T12:16:58.625Z,13.70
2017-10-23T12:19:26.170Z,13.70
2017-10-23T12:21:53.757Z,13.70
2017-10-23T12:24:22.169Z,13.70
2017-10-23T12:26:49.707Z,13.60
2017-10-23T12:29:17.249Z,13.70
2017-10-23T12:31:45.558Z,13.80
2017-10-23T12:34:13.220Z,13.80
2017-10-23T12:36:40.894Z,13.90
2017-10-23T12:39:08.688Z,14.20
2017-10-23T12:41:36.416Z,14.20
2017-10-23T12:44:03.980Z,14.20
2017-10-23T12:46:31.563Z,14.50
2017-10-23T12:48:59.104Z,14.50
2017-10-23T12:51:26.838Z,14.60
2017-10-23T12:53:54.413Z,14.40
2017-10-23T12:56:22.534Z,14.50
2017-10-23T12:58:50.852Z,14.60
2017-10-23T13:01:18.378Z,14.60
2017-10-23T13:03:46.865Z,14.50
2017-10-23T13:06:14.448Z,14.50
2017-10-23T13:08:42.102Z,14.50
2017-10-23T13:11:09.637Z,14.40
2017-10-23T13:13:38.802Z,14.40
2017-10-23T13:16:06.381Z,14.30
2017-10-23T13:18:34.719Z,14.20
2017-10-23T13:21:02.298Z,14.20
2017-10-23T13:23:29.848Z,14.20
2017-10-23T13:25:57.398Z,14.10
2017-10-23T13:28:24.966Z,14.20
2017-10-23T13:30:52.509Z,14.20
2017-10-23T13:33:20.052Z,14.30
2017-10-23T13:35:47.613Z,14.40
2017-10-23T13:38:15.165Z,14.30
2017-10-23T13:40:42.941Z,14.40
2017-10-23T13:43:10.489Z,14.40
2017-10-23T13:45:38.050Z,14.40
2017-10-23T13:48:05.630Z,14.40
2017-10-23T13:50:33.169Z,14.50
2017-10-23T13:53:00.764Z,14.40
2017-10-23T13:55:28.320Z,14.50
2017-10-23T13:57:55.882Z,14.40
2017-10-23T14:00:23.447Z,14.40
2017-10-23T14:02:51.774Z,14.30
2017-10-23T14:05:19.541Z,14.30
2017-10-23T14:07:47.085Z,14.30
2017-10-23T14:10:14.620Z,14.40
2017-10-23T14:12:42.172Z,14.30
2017-10-23T14:15:10.490Z,14.20
2017-10-23T14:17:38.197Z,14.20
2017-10-23T14:20:06.519Z,14.10
2017-10-23T14:22:34.044Z,14.10
2017-10-23T14:25:02.347Z,14.00
2017-10-23T14:27:29.883Z,14.00
2017-10-23T14:29:57.545Z,14.00
2017-10-23T14:32:25.097Z,14.10
2017-10-23T14:34:52.622Z,14.20
2017-10-23T14:37:21.041Z,14.30
2017-10-23T14:39:48.570Z,14.40
2017-10-23T14:42:16.165Z,14.40
2017-10-23T14:44:43.710Z,14.40
2017-10-23T14:47:12.108Z,14.30
2017-10-23T14:49:39.660Z,14.30
2017-10-23T14:52:07.242Z,14.30
2017-10-23T14:54:34.798Z,14.20
2017-10-23T14:57:03.220Z,14.10
2017-10-23T14:59:30.749Z,14.00
2017-10-23T15:01:58.307Z,14.00
2017-10-23T15:04:25.878Z,14.00
2017-10-23T15:06:53.597Z,13.90
2017-10-23T15:09:21.112Z,13.90
2017-10-23T15:11:49.427Z,13.90
2017-10-23T15:14:17.035Z,13.90
2017-10-23T15:16:44.585Z,13.90
2017-10-23T15:19:12.315Z,13.90
2017-10-23T15:21:39.854Z,13.80
2017-10-23T15:24:07.394Z,13.70
2017-10-23T15:26:35.740Z,13.70
2017-10-23T15:29:03.266Z,13.70
2017-10-23T15:31:31.023Z,13.70
2017-10-23T15:33:58.553Z,13.80
2017-10-23T15:36:26.854Z,13.80
2017-10-23T15:38:54.435Z,13.80
2017-10-23T15:41:22.002Z,13.80
2017-10-23T15:43:49.629Z,13.60
2017-10-23T15:46:17.289Z,13.50
2017-10-23T15:48:44.846Z,13.40
2017-10-23T15:51:12.410Z,13.30
2017-10-23T15:53:39.966Z,13.30
2017-10-23T15:56:07.591Z,13.30
2017-10-23T15:58:35.899Z,13.30
2017-10-23T16:01:03.445Z,13.30
2017-10-23T16:03:31.032Z,13.30
2017-10-23T16:05:58.617Z,13.20
2017-10-23T16:08:26.203Z,13.10
2017-10-23T16:10:54.628Z,12.90
2017-10-23T16:13:22.190Z,12.90
2017-10-23T16:15:50.235Z,12.90
2017-10-23T16:18:17.834Z,12.90
2017-10-23T16:20:45.473Z,12.90
2017-10-23T16:23:13.127Z,12.80
2017-10-23T16:25:40.716Z,12.80
2017-10-23T16:28:08.275Z,12.70
2017-10-23T16:30:35.846Z,12.70
2017-10-23T16:33:03.549Z,12.60
2017-10-23T16:35:31.119Z,12.50
2017-10-23T16:37:58.670Z,12.50
2017-10-23T16:40:26.484Z,12.50
2017-10-23T16:42:54.358Z,12.30
2017-10-23T16:45:22.762Z,12.50
2017-10-23T16:47:51.079Z,12.40
2017-10-23T16:50:18.665Z,12.40
2017-10-23T16:52:46.325Z,12.30
2017-10-23T16:55:13.874Z,12.20
2017-10-23T16:57:41.436Z,12.30
2017-10-23T17:00:10.492Z,12.50
2017-10-23T17:02:38.067Z,12.40
2017-10-23T17:05:05.639Z,12.40
2017-10-23T17:07:33.206Z,12.30
2017-10-23T17:10:00.773Z,12.30
2017-10-23T17:12:28.337Z,12.30
2017-10-23T17:14:56.041Z,12.20
2017-10-23T17:17:23.584Z,12.10
2017-10-23T17:19:51.143Z,12.10
2017-10-23T17:22:18.718Z,12.00
2017-10-23T17:24:46.288Z,12.00
2017-10-23T17:27:14.065Z,12.10
2017-10-23T17:29:41.620Z,12.10
2017-10-23T17:32:09.242Z,12.20
2017-10-23T17:34:36.916Z,12.20
2017-10-23T17:37:04.441Z,12.30
2017-10-23T17:39:32.909Z,12.40
2017-10-23T17:42:00.491Z,12.50
2017-10-23T17:44:28.046Z,12.40
2017-10-23T17:46:56.464Z,12.20
2017-10-23T17:49:24.032Z,12.20
2017-10-23T17:51:51.855Z,12.10
2017-10-23T17:54:19.503Z,12.10
2017-10-23T17:56:47.984Z,12.00
2017-10-23T17:59:15.658Z,12.00
2017-10-23T18:01:43.218Z,12.00
2017-10-23T18:04:10.993Z,12.00
2017-10-23T18:06:38.562Z,12.00
2017-10-23T18:09:06.139Z,12.00
2017-10-23T18:11:33.856Z,12.00
2017-10-23T18:14:01.492Z,12.00
2017-10-23T18:16:30.004Z,12.00
2017-10-23T18:18:57.552Z,11.90
2017-10-23T18:21:25.133Z,11.90
2017-10-23T18:23:52.724Z,11.90
2017-10-23T18:26:20.271Z,11.80
2017-10-23T18:28:48.022Z,11.80
2017-10-23T18:31:15.593Z,11.80
2017-10-23T18:33:43.958Z,11.80
2017-10-23T18:36:11.557Z,11.80
2017-10-23T18:38:39.132Z,11.70
2017-10-23T18:41:07.849Z,11.70
2017-10-23T18:43:35.503Z,11.70
2017-10-23T18:46:03.061Z,11.70
2017-10-23T18:48:30.654Z,11.70
2017-10-23T18:50:58.286Z,11.60
2017-10-23T18:53:25.975Z,11.60
2017-10-23T18:55:53.588Z,11.60
2017-10-23T18:58:21.247Z,11.60
2017-10-23T19:00:48.879Z,11.50
2017-10-23T19:03:16.444Z,11.60
2017-10-23T19:05:44.010Z,11.50
2017-10-23T19:08:12.408Z,11.50
2017-10-23T19:10:40.196Z,11.40
2017-10-23T19:13:07.746Z,11.40
2017-10-23T19:15:35.330Z,11.40
2017-10-23T19:18:03.082Z,11.40
2017-10-23T19:20:30.699Z,11.40
2017-10-23T19:22:58.272Z,11.50
2017-10-23T19:25:25.822Z,11.50
2017-10-23T19:27:53.437Z,11.60
2017-10-23T19:30:21.158Z,11.60
2017-10-23T19:32:48.710Z,11.70
2017-10-23T19:35:16.314Z,11.80
2017-10-23T19:37:43.906Z,11.80
2017-10-23T19:40:12.746Z,11.90
2017-10-23T19:42:40.335Z,11.90
2017-10-23T19:45:07.926Z,11.90
2017-10-23T19:47:36.228Z,11.90
2017-10-23T19:50:03.833Z,11.90
2017-10-23T19:52:32.295Z,12.00
2017-10-23T19:55:00.657Z,12.10
2017-10-23T19:57:28.205Z,12.10
2017-10-23T19:59:55.785Z,12.10
2017-10-23T20:02:23.362Z,12.10
2017-10-23T20:04:51.720Z,12.20
2017-10-23T20:07:19.424Z,12.10
2017-10-23T20:09:47.784Z,12.20
2017-10-23T20:12:16.100Z,12.20
2017-10-23T20:14:43.732Z,12.20
2017-10-23T20:17:11.368Z,12.30
2017-10-23T20:19:39.720Z,12.30
2017-10-23T20:22:07.272Z,12.30
2017-10-23T20:24:34.828Z,12.30
2017-10-23T20:27:02.510Z,12.30
2017-10-23T20:29:30.071Z,12.30
2017-10-23T20:31:57.897Z,12.40
2017-10-23T20:34:25.439Z,12.40
2017-10-23T20:36:53.091Z,12.50
2017-10-23T20:39:20.771Z,12.50
2017-10-23T20:41:48.384Z,12.40
2017-10-23T20:44:16.865Z,12.40
2017-10-23T20:46:44.436Z,12.40
2017-10-23T20:49:12.791Z,12.40
2017-10-23T20:51:40.382Z,12.40
2017-10-23T20:54:08.752Z,12.40
2017-10-23T20:56:37.125Z,12.40
2017-10-23T20:59:05.538Z,12.50
2017-10-23T21:01:33.098Z,12.50
2017-10-23T21:04:00.684Z,12.50
2017-10-23T21:06:28.241Z,12.50
2017-10-23T21:08:55.986Z,12.50
2017-10-23T21:11:23.555Z,12.50
2017-10-23T21:13:51.101Z,12.50
2017-10-23T21:16:18.665Z,12.50
2017-10-23T21:18:46.237Z,12.60
2017-10-23T21:21:13.829Z,12.60
2017-10-23T21:23:42.159Z,12.70
2017-10-23T21:26:09.706Z,12.60
2017-10-23T21:28:37.878Z,12.70
2017-10-23T21:31:05.452Z,12.70
2017-10-23T21:33:33.063Z,12.60
2017-10-23T21:36:01.399Z,12.60
2017-10-23T21:38:28.959Z,12.60
2017-10-23T21:40:56.500Z,12.60
2017-10-23T21:43:24.039Z,12.60
2017-10-23T21:45:51.617Z,12.60
2017-10-23T21:48:19.344Z,12.60
2017-10-23T21:50:46.926Z,12.70
2017-10-23T21:53:14.470Z,12.70
2017-10-23T21:55:42.013Z,12.60
2017-10-23T21:58:09.591Z,12.50
2017-10-23T22:00:37.150Z,12.40
2017-10-23T22:03:04.685Z,12.30
2017-10-23T22:05:32.284Z,12.20
2017-10-23T22:07:59.989Z,12.20
2017-10-23T22:10:28.585Z,12.10
2017-10-23T22:12:56.143Z,12.10
2017-10-23T22:15:23.676Z,12.10
2017-10-23T22:17:51.212Z,12.10
2017-10-23T22:20:18.784Z,12.10
2017-10-23T22:22:46.351Z,12.00
2017-10-23T22:25:13.909Z,12.00
2017-10-23T22:27:41.485Z,12.00
2017-10-23T22:30:09.057Z,11.90
2017-10-23T22:32:36.589Z,11.90
2017-10-23T22:35:05.213Z,11.80
2017-10-23T22:37:33.696Z,11.80
2017-10-23T22:40:01.224Z,11.80
2017-10-23T22:42:29.590Z,11.90
2017-10-23T22:44:57.959Z,11.90
2017-10-23T22:47:25.641Z,11.90
2017-10-23T22:49:53.950Z,11.90
2017-10-23T22:52:21.475Z,11.90
2017-10-23T22:54:49.801Z,11.90
2017-10-23T22:57:17.438Z,11.90
2017-10-23T22:59:44.994Z,11.90
2017-10-23T23:02:12.683Z,12.00
2017-10-23T23:04:40.216Z,12.10
2017-10-23T23:07:07.796Z,12.10
2017-10-23T23:09:35.344Z,12.10
2017-10-23T23:12:02.924Z,12.10
2017-10-23T23:14:30.523Z,12.20
2017-10-23T23:16:58.853Z,12.10
2017-10-23T23:19:26.411Z,12.10
2017-10-23T23:21:54.914Z,12.10
2017-10-23T23:24:22.521Z,12.10
2017-10-23T23:26:50.086Z,12.10
2017-10-23T23:29:17.742Z,12.10
2017-10-23T23:31:45.290Z,12.30
2017-10-23T23:34:12.837Z,12.30
2017-10-23T23:36:40.493Z,12.30
2017-10-23T23:39:08.827Z,12.30
2017-10-23T23:41:36.362Z,12.30
2017-10-23T23:44:03.900Z,12.20
2017-10-23T23:46:31.483Z,12.20
2017-10-23T23:48:59.053Z,12.10
2017-10-23T23:51:26.607Z,12.10
2017-10-23T23:53:54.242Z,12.10
2017-10-23T23:56:21.846Z,12.10
2017-10-23T23:58:49.382Z,12.10
